createdAt,value
2018-08-13T00:00:53.288Z,50.80
2018-08-13T00:03:21.319Z,51.10
2018-08-13T00:06:00.042Z,50.90
2018-08-13T00:08:28.651Z,50.80
2018-08-13T00:10:56.400Z,51.40
2018-08-13T00:13:24.460Z,51.60
2018-08-13T00:15:52.204Z,51.20
2018-08-13T00:18:20.039Z,51.20
2018-08-13T00:20:47.873Z,51.80
2018-08-13T00:23:15.756Z,52.10
2018-08-13T00:25:50.432Z,52.00
2018-08-13T00:28:32.708Z,51.40
2018-08-13T00:31:13.325Z,51.40
2018-08-13T00:33:48.448Z,51.60
2018-08-13T00:36:27.901Z,51.30
2018-08-13T00:39:09.800Z,51.90
2018-08-13T00:41:48.622Z,51.70
2018-08-13T00:47:22.232Z,52.20
2018-08-13T01:01:34.117Z,52.20
2018-08-13T01:04:14.283Z,52.70
2018-08-13T01:06:52.628Z,53.00
2018-08-13T01:09:30.283Z,53.40
2018-08-13T01:12:11.338Z,53.20
2018-08-13T01:29:25.744Z,54.00
2018-08-13T01:32:08.122Z,54.40
2018-08-13T01:34:49.482Z,54.80
2018-08-13T01:37:31.913Z,55.00
2018-08-13T01:40:14.116Z,55.10
2018-08-13T01:42:52.296Z,55.30
2018-08-13T01:45:30.843Z,55.00
2018-08-13T01:59:43.639Z,55.20
2018-08-13T02:05:13.577Z,55.50
2018-08-13T02:07:54.567Z,55.40
2018-08-13T02:10:29.978Z,56.20
2018-08-13T02:13:09.432Z,55.80
2018-08-13T02:15:48.565Z,56.70
2018-08-13T02:18:26.777Z,56.30
2018-08-13T02:38:26.406Z,56.40
2018-08-13T02:41:05.759Z,56.20
2018-08-13T02:43:44.362Z,56.30
2018-08-13T02:46:25.648Z,56.50
2018-08-13T02:49:05.082Z,56.40
2018-08-13T02:51:46.054Z,56.20
2018-08-13T02:54:28.484Z,56.30
2018-08-13T03:14:24.034Z,56.00
2018-08-13T03:17:04.561Z,56.20
2018-08-13T03:19:40.924Z,56.00
2018-08-13T03:22:24.059Z,55.90
2018-08-13T03:25:07.416Z,55.10
2018-08-13T03:27:46.919Z,55.20
2018-08-13T03:30:30.351Z,55.20
2018-08-13T03:33:09.473Z,55.00
2018-08-13T03:35:51.686Z,55.10
2018-08-13T03:38:29.143Z,55.70
2018-08-13T03:41:07.804Z,55.50
2018-08-13T03:43:49.080Z,55.60
2018-08-13T03:46:33.168Z,55.40
2018-08-13T03:49:14.715Z,55.20
2018-08-13T04:09:10.350Z,55.20
2018-08-13T04:11:51.022Z,54.90
2018-08-13T04:14:28.919Z,54.90
2018-08-13T04:17:08.068Z,54.50
2018-08-13T04:37:16.281Z,55.50
2018-08-13T04:39:57.012Z,55.30
2018-08-13T04:42:38.538Z,55.10
2018-08-13T04:45:18.898Z,54.80
2018-08-13T04:48:02.072Z,54.80
2018-08-13T04:50:42.402Z,54.80
2018-08-13T04:53:17.801Z,54.70
2018-08-13T04:55:57.266Z,54.60
2018-08-13T04:58:40.698Z,55.10
2018-08-13T05:04:13.120Z,54.60
2018-08-13T05:06:50.380Z,54.00
2018-08-13T05:09:33.799Z,53.60
2018-08-13T05:12:11.305Z,53.70
2018-08-13T05:14:50.549Z,53.60
2018-08-13T05:17:18.369Z,53.50
2018-08-13T05:19:46.164Z,53.30
2018-08-13T05:22:27.500Z,53.70
2018-08-13T05:25:06.797Z,54.00
2018-08-13T05:27:47.241Z,54.20
2018-08-13T05:30:27.598Z,56.00
2018-08-13T05:33:03.260Z,57.70
2018-08-13T05:35:40.856Z,60.20
2018-08-13T05:38:21.923Z,60.60
2018-08-13T05:41:04.655Z,63.10
2018-08-13T05:43:43.262Z,64.20
2018-08-13T05:46:11.281Z,65.40
2018-08-13T05:48:55.595Z,66.70
2018-08-13T05:51:37.486Z,67.20
2018-08-13T05:54:16.925Z,67.70
2018-08-13T05:56:57.003Z,68.20
2018-08-13T05:59:39.357Z,68.60
2018-08-13T06:02:18.931Z,66.60
2018-08-13T06:05:00.106Z,65.60
2018-08-13T06:07:28.006Z,64.60
2018-08-13T06:10:08.949Z,62.70
2018-08-13T06:13:00.581Z,61.50
2018-08-13T06:15:37.451Z,61.10
2018-08-13T06:18:16.900Z,60.90
2018-08-13T06:20:44.593Z,59.50
2018-08-13T06:23:24.464Z,58.60
2018-08-13T06:26:06.198Z,57.30
2018-08-13T06:28:34.641Z,56.40
2018-08-13T06:31:02.472Z,55.30
2018-08-13T06:33:39.916Z,54.40
2018-08-13T06:36:19.375Z,53.10
2018-08-13T06:38:53.893Z,53.20
2018-08-13T06:41:22.032Z,51.70
2018-08-13T06:43:49.938Z,51.70
2018-08-13T06:46:33.547Z,51.90
2018-08-13T06:49:02.353Z,50.50
2018-08-13T06:51:39.208Z,50.50
2018-08-13T06:54:18.546Z,49.40
2018-08-13T06:56:55.879Z,49.30
2018-08-13T06:59:38.680Z,48.90
2018-08-13T07:02:17.812Z,47.60
2018-08-13T07:04:56.333Z,47.30
2018-08-13T07:07:38.532Z,46.50
2018-08-13T07:10:20.614Z,43.70
2018-08-13T07:13:02.938Z,43.80
2018-08-13T07:15:39.659Z,42.30
2018-08-13T07:21:09.983Z,40.10
2018-08-13T07:23:48.315Z,38.10
2018-08-13T07:26:29.664Z,37.30
2018-08-13T07:29:11.008Z,38.30
2018-08-13T07:31:52.416Z,37.00
2018-08-13T07:34:36.881Z,36.80
2018-08-13T07:37:05.687Z,36.20
2018-08-13T07:39:42.343Z,35.40
2018-08-13T07:42:25.686Z,34.40
2018-08-13T07:45:04.188Z,34.30
2018-08-13T07:47:44.547Z,34.50
2018-08-13T07:50:25.707Z,33.40
2018-08-13T07:53:04.346Z,33.40
2018-08-13T07:55:48.700Z,32.80
2018-08-13T07:58:16.736Z,31.70
2018-08-13T08:00:44.568Z,32.20
2018-08-13T08:03:12.458Z,31.70
2018-08-13T08:08:29.684Z,31.60
2018-08-13T08:11:09.695Z,30.90
2018-08-13T08:13:50.793Z,31.60
2018-08-13T08:16:27.650Z,30.30
2018-08-13T08:21:55.810Z,31.20
2018-08-13T08:24:34.883Z,32.10
2018-08-13T08:27:13.699Z,33.20
2018-08-13T08:29:52.807Z,33.90
2018-08-13T08:32:24.992Z,33.90
2018-08-13T08:35:02.450Z,33.70
2018-08-13T08:37:41.018Z,33.10
2018-08-13T08:40:25.368Z,35.20
2018-08-13T08:43:04.454Z,34.40
2018-08-13T08:48:30.434Z,34.20
2018-08-13T08:51:11.511Z,33.50
2018-08-13T08:53:50.817Z,34.00
2018-08-13T08:56:32.233Z,34.40
2018-08-13T09:04:58.400Z,32.80
2018-08-13T09:10:26.986Z,32.90
2018-08-13T09:13:06.250Z,33.20
2018-08-13T09:15:47.521Z,33.80
2018-08-13T09:18:32.182Z,33.50
2018-08-13T09:21:16.542Z,33.00
2018-08-13T09:24:04.655Z,33.10
2018-08-13T09:26:52.320Z,33.30
2018-08-13T09:29:35.424Z,31.00
2018-08-13T09:32:25.020Z,30.80
2018-08-13T09:35:37.016Z,30.10
2018-08-13T09:38:16.758Z,31.50
2018-08-13T09:41:00.196Z,30.50
2018-08-13T09:43:44.164Z,30.60
2018-08-13T09:46:21.503Z,30.50
2018-08-13T09:48:50.484Z,30.00
2018-08-13T09:51:29.148Z,30.30
2018-08-13T09:54:07.475Z,30.50
2018-08-13T09:56:48.883Z,29.60
2018-08-13T09:59:24.277Z,30.10
2018-08-13T10:02:07.517Z,30.10
2018-08-13T10:04:35.376Z,30.60
2018-08-13T10:10:06.580Z,28.50
2018-08-13T10:12:46.927Z,28.40
2018-08-13T10:15:14.952Z,29.00
2018-08-13T10:18:02.782Z,29.80
2018-08-13T10:20:42.956Z,30.90
2018-08-13T10:23:24.446Z,31.40
2018-08-13T10:25:53.068Z,32.80
2018-08-13T10:28:20.847Z,32.80
2018-08-13T10:30:57.236Z,33.50
2018-08-13T10:33:36.701Z,34.30
2018-08-13T10:36:13.969Z,35.50
2018-08-13T10:38:54.661Z,35.20
2018-08-13T10:41:34.710Z,36.30
2018-08-13T10:44:15.953Z,36.50
2018-08-13T10:46:53.589Z,36.40
2018-08-13T11:06:50.841Z,38.60
2018-08-13T11:15:19.180Z,40.10
2018-08-13T11:17:57.391Z,40.40
2018-08-13T11:20:25.993Z,39.80
2018-08-13T11:23:05.866Z,39.90
2018-08-13T11:25:46.489Z,40.60
2018-08-13T11:28:15.033Z,40.60
2018-08-13T11:30:56.891Z,40.80
2018-08-13T11:33:24.712Z,40.80
2018-08-13T11:35:52.525Z,41.40
2018-08-13T11:38:32.652Z,41.30
2018-08-13T11:41:07.483Z,41.80
2018-08-13T11:43:47.848Z,42.70
2018-08-13T11:46:28.008Z,43.70
2018-08-13T11:51:59.993Z,45.10
2018-08-13T11:54:42.185Z,45.80
2018-08-13T11:57:21.317Z,46.00
2018-08-13T12:00:02.906Z,47.70
2018-08-13T12:02:31.587Z,48.90
2018-08-13T12:05:13.185Z,50.30
2018-08-13T12:08:00.914Z,51.10
2018-08-13T12:10:39.096Z,51.80
2018-08-13T12:13:20.434Z,51.10
2018-08-13T12:16:00.767Z,51.90
2018-08-13T12:18:42.103Z,52.60
2018-08-13T12:21:22.439Z,54.00
2018-08-13T12:24:04.788Z,53.80
2018-08-13T12:26:48.971Z,54.30
2018-08-13T12:29:25.647Z,54.30
2018-08-13T12:32:09.992Z,53.90
2018-08-13T12:34:49.432Z,53.40
2018-08-13T12:37:29.178Z,53.70
2018-08-13T12:40:08.902Z,53.50
2018-08-13T12:42:47.250Z,53.50
2018-08-13T12:45:24.727Z,53.10
2018-08-13T12:56:44.061Z,51.80
2018-08-13T12:59:28.387Z,51.00
2018-08-13T13:02:02.417Z,51.40
2018-08-13T13:04:30.209Z,50.90
2018-08-13T13:06:57.981Z,50.00
2018-08-13T13:09:26.268Z,50.60
2018-08-13T13:17:39.404Z,50.90
2018-08-13T13:20:09.837Z,50.10
2018-08-13T13:22:37.600Z,49.60
2018-08-13T13:27:55.393Z,50.10
2018-08-13T13:30:23.145Z,49.50
2018-08-13T13:33:05.528Z,49.80
2018-08-13T13:35:49.760Z,50.90
2018-08-13T13:41:25.842Z,52.60
2018-08-13T13:44:02.817Z,52.80
2018-08-13T13:46:42.250Z,53.30
2018-08-13T13:49:20.472Z,54.10
2018-08-13T13:52:03.594Z,55.10
2018-08-13T13:54:42.263Z,56.10
2018-08-13T13:57:24.607Z,57.10
2018-08-13T14:05:45.260Z,58.70
2018-08-13T14:08:13.093Z,58.70
2018-08-13T14:10:43.938Z,59.20
2018-08-13T14:13:24.589Z,59.60
2018-08-13T14:16:06.920Z,59.20
2018-08-13T14:18:47.585Z,59.10
2018-08-13T14:21:28.780Z,59.60
2018-08-13T14:24:08.223Z,60.00
2018-08-13T14:26:48.579Z,60.00
2018-08-13T14:29:29.573Z,59.30
2018-08-13T14:32:05.309Z,58.80
2018-08-13T14:34:46.638Z,59.80
2018-08-13T14:37:14.636Z,59.40
2018-08-13T14:39:54.190Z,59.00
2018-08-13T14:42:35.193Z,59.30
2018-08-13T14:45:13.615Z,59.70
2018-08-13T14:47:56.412Z,60.60
2018-08-13T14:50:36.458Z,60.40
2018-08-13T14:53:20.612Z,60.00
2018-08-13T14:56:02.098Z,59.60
2018-08-13T14:58:46.201Z,60.60
2018-08-13T15:01:27.528Z,60.10
2018-08-13T15:04:07.785Z,60.80
2018-08-13T15:06:52.447Z,60.90
2018-08-13T15:18:09.610Z,62.30
2018-08-13T15:20:48.071Z,62.30
2018-08-13T15:23:31.331Z,61.60
2018-08-13T15:26:10.706Z,61.10
2018-08-13T15:28:56.979Z,60.80
2018-08-13T15:31:25.732Z,60.60
2018-08-13T15:34:04.926Z,61.40
2018-08-13T15:39:38.262Z,60.50
2018-08-13T15:56:45.524Z,61.60
2018-08-13T16:04:59.389Z,62.00
2018-08-13T16:07:27.248Z,60.30
2018-08-13T16:10:10.403Z,60.40
2018-08-13T16:12:52.358Z,60.80
2018-08-13T16:15:32.660Z,61.80
2018-08-13T16:18:09.326Z,62.20
2018-08-13T16:20:41.688Z,62.60
2018-08-13T16:23:20.830Z,61.80
2018-08-13T16:26:03.012Z,60.20
2018-08-13T16:28:38.336Z,60.90
2018-08-13T16:31:21.668Z,60.50
2018-08-13T16:34:01.995Z,60.20
2018-08-13T16:36:40.479Z,59.70
2018-08-13T16:39:19.918Z,60.60
2018-08-13T16:41:59.361Z,61.00
2018-08-13T16:44:38.487Z,61.40
2018-08-13T16:47:14.854Z,62.00
2018-08-13T16:52:44.265Z,61.70
2018-08-13T17:06:43.728Z,62.80
2018-08-13T17:09:11.921Z,63.40
2018-08-13T17:11:39.691Z,63.40
2018-08-13T17:14:22.056Z,64.00
2018-08-13T17:17:01.250Z,63.90
2018-08-13T17:19:41.910Z,63.60
2018-08-13T17:22:16.902Z,64.00
2018-08-13T17:24:55.597Z,64.40
2018-08-13T17:27:36.643Z,64.50
2018-08-13T17:32:58.944Z,64.20
2018-08-13T17:35:28.932Z,65.10
2018-08-13T17:38:09.070Z,65.80
2018-08-13T17:40:48.514Z,65.30
2018-08-13T17:43:26.722Z,64.90
2018-08-13T17:46:06.878Z,65.10
2018-08-13T17:48:48.359Z,65.40
2018-08-13T17:51:28.730Z,65.30
2018-08-13T17:54:03.241Z,65.00
2018-08-13T17:56:41.456Z,65.00
2018-08-13T17:59:23.499Z,65.00
2018-08-13T18:02:03.138Z,64.00
2018-08-13T18:04:43.151Z,64.50
2018-08-13T18:07:21.541Z,65.60
2018-08-13T18:10:01.171Z,66.10
2018-08-13T18:15:27.948Z,66.20
2018-08-13T18:18:07.920Z,66.40
2018-08-13T18:20:50.529Z,66.50
2018-08-13T18:23:24.744Z,66.40
2018-08-13T18:26:06.033Z,66.80
2018-08-13T18:28:46.079Z,66.80
2018-08-13T18:34:15.988Z,66.70
2018-08-13T18:42:39.218Z,65.00
2018-08-13T18:45:25.722Z,64.40
2018-08-13T18:48:05.166Z,65.20
2018-08-13T18:50:48.282Z,64.60
2018-08-13T18:53:28.388Z,65.20
2018-08-13T18:56:03.760Z,65.30
2018-08-13T18:58:46.032Z,65.70
2018-08-13T19:01:26.649Z,66.90
2018-08-13T19:03:55.172Z,66.20
2018-08-13T19:06:22.968Z,64.90
2018-08-13T19:09:10.527Z,62.40
2018-08-13T19:11:57.034Z,61.40
2018-08-13T19:14:24.821Z,60.30
2018-08-13T19:17:00.335Z,60.00
2018-08-13T19:19:40.606Z,59.50
2018-08-13T19:22:21.272Z,59.50
2018-08-13T19:25:14.344Z,58.60
2018-08-13T19:27:51.518Z,58.00
2018-08-13T19:30:31.259Z,57.50
2018-08-13T19:33:12.358Z,57.10
2018-08-13T19:35:51.682Z,57.30
2018-08-13T19:38:32.031Z,57.50
2018-08-13T19:41:13.373Z,57.70
2018-08-13T19:43:51.707Z,58.10
2018-08-13T19:46:38.334Z,58.30
2018-08-13T19:49:13.398Z,58.80
2018-08-13T19:51:52.910Z,59.30
2018-08-13T19:54:33.269Z,59.20
2018-08-13T20:00:01.763Z,59.70
2018-08-13T20:05:34.376Z,61.00
2018-08-13T20:11:06.225Z,61.90
2018-08-13T20:13:45.495Z,62.20
2018-08-13T20:19:17.373Z,64.70
2018-08-13T20:21:45.909Z,65.10
2018-08-13T20:24:23.039Z,65.50
2018-08-13T20:27:02.479Z,66.40
2018-08-13T20:32:29.941Z,66.50
2018-08-13T20:38:01.732Z,67.20
2018-08-13T20:40:48.947Z,68.50
2018-08-13T20:43:30.309Z,69.30
2018-08-13T20:46:08.648Z,70.00
2018-08-13T20:51:42.367Z,70.00
2018-08-13T20:54:11.193Z,70.20
2018-08-13T20:56:52.239Z,70.20
2018-08-13T20:59:33.414Z,71.60
2018-08-13T21:02:11.708Z,70.50
2018-08-13T21:04:50.248Z,71.50
2018-08-13T21:07:26.756Z,72.00
2018-08-13T21:10:05.711Z,72.10
2018-08-13T21:12:49.066Z,72.60
2018-08-13T21:15:31.687Z,73.00
2018-08-13T21:18:12.048Z,73.10
2018-08-13T21:20:53.335Z,73.60
2018-08-13T21:23:29.464Z,74.20
2018-08-13T21:26:06.982Z,74.70
2018-08-13T21:28:48.073Z,74.80
2018-08-13T21:31:37.430Z,75.30
2018-08-13T21:37:09.315Z,76.30
2018-08-13T21:39:48.140Z,77.00
2018-08-13T21:42:25.119Z,76.50
2018-08-13T21:47:46.345Z,76.50
2018-08-13T21:50:17.721Z,77.30
2018-08-13T21:52:46.057Z,77.60
2018-08-13T21:55:13.892Z,75.80
2018-08-13T21:57:41.664Z,73.40
2018-08-13T22:00:31.156Z,72.20
2018-08-13T22:03:01.336Z,73.00
2018-08-13T22:05:29.243Z,73.90
2018-08-13T22:07:57.161Z,73.40
2018-08-13T22:10:31.445Z,73.90
2018-08-13T22:13:12.025Z,75.00
2018-08-13T22:15:48.391Z,76.20
2018-08-13T22:18:29.371Z,75.80
2018-08-13T22:21:09.721Z,76.10
2018-08-13T22:23:56.077Z,76.80
2018-08-13T22:26:36.590Z,77.50
2018-08-13T22:29:09.189Z,77.80
2018-08-13T22:31:37.109Z,77.80
2018-08-13T22:34:04.960Z,77.80
2018-08-13T22:36:32.827Z,79.00
2018-08-13T22:39:00.587Z,79.80
2018-08-13T22:41:38.537Z,79.80
2018-08-13T22:44:18.661Z,80.60
2018-08-13T22:46:55.272Z,81.40
2018-08-13T22:49:36.239Z,81.00
2018-08-13T22:52:16.599Z,81.30
2018-08-13T22:54:56.505Z,81.10
2018-08-13T22:57:24.276Z,81.20
2018-08-13T22:59:52.101Z,81.10
2018-08-13T23:08:14.154Z,80.50
2018-08-13T23:10:56.355Z,79.80
2018-08-13T23:19:25.086Z,79.60
2018-08-13T23:22:02.678Z,79.30
2018-08-13T23:30:27.719Z,79.40
2018-08-13T23:44:39.594Z,80.10
2018-08-13T23:47:23.026Z,80.60
2018-08-13T23:50:03.095Z,80.30
2018-08-13T23:52:43.440Z,78.70
2018-08-13T23:55:25.949Z,78.80
2018-08-13T23:58:06.133Z,79.10
